<?xml version="1.0" encoding="UTF-8" standalone="no" ?>
<gpx xmlns="http://www.topografix.com/GPX/1/1" xmlns:xsi="http://www.w3.org/2001/XMLSchema-instance" xsi:schemaLocation="http://www.topografix.com/GPX/1/1 http://www.topografix.com/GPX/1/1/gpx.xsd" version="1.1" creator="VisuGPX - https://www.visugpx.com">
  <metadata>
    <name>13904880-Sennepin le mallot</name>
    <desc><![CDATA[Circuit non balisé à faire avec la carte en main ou GPS]]></desc>
  </metadata>
  <trk>
    <name><![CDATA[13904880-Sennepin le mallot]]></name>
    <extensions>
      <line xmlns="http://www.topografix.com/GPX/gpx_style/0/2">
        <color>0000FF</color>
        <width>4</width>
      </line>
    </extensions>
    <trkseg>
      <trkpt lat="46.05474" lon="3.6888">
        <ele>591</ele>
        <time>2021-11-04T15:25:10Z</time>
      </trkpt>
      <trkpt lat="46.05474" lon="3.6888">
        <ele>591</ele>
        <time>2021-11-04T15:25:10Z</time>
      </trkpt>
      <trkpt lat="46.05462" lon="3.68804">
        <ele>591</ele>
        <time>2021-11-04T15:26:22Z</time>
      </trkpt>
      <trkpt lat="46.05363" lon="3.68711">
        <ele>597</ele>
        <time>2021-11-04T15:29:00Z</time>
      </trkpt>
      <trkpt lat="46.05324" lon="3.68608">
        <ele>595</ele>
        <time>2021-11-04T15:30:49Z</time>
      </trkpt>
      <trkpt lat="46.05206" lon="3.68426">
        <ele>588</ele>
        <time>2021-11-04T15:34:39Z</time>
      </trkpt>
      <trkpt lat="46.0513" lon="3.68414">
        <ele>591</ele>
        <time>2021-11-04T15:36:21Z</time>
      </trkpt>
      <trkpt lat="46.05071" lon="3.68274">
        <ele>587</ele>
        <time>2021-11-04T15:38:53Z</time>
      </trkpt>
      <trkpt lat="46.05134" lon="3.68134">
        <ele>584</ele>
        <time>2021-11-04T15:41:27Z</time>
      </trkpt>
      <trkpt lat="46.05006" lon="3.68142">
        <ele>590</ele>
        <time>2021-11-04T15:44:18Z</time>
      </trkpt>
      <trkpt lat="46.04899" lon="3.68039">
        <ele>586</ele>
        <time>2021-11-04T15:47:10Z</time>
      </trkpt>
      <trkpt lat="46.04823" lon="3.68004">
        <ele>588</ele>
        <time>2021-11-04T15:48:57Z</time>
      </trkpt>
      <trkpt lat="46.04799" lon="3.6797">
        <ele>592</ele>
        <time>2021-11-04T15:49:42Z</time>
      </trkpt>
      <trkpt lat="46.04747" lon="3.67882">
        <ele>601</ele>
        <time>2021-11-04T15:51:29Z</time>
      </trkpt>
      <trkpt lat="46.04686" lon="3.67811">
        <ele>615</ele>
        <time>2021-11-04T15:53:13Z</time>
      </trkpt>
      <trkpt lat="46.04764" lon="3.67749">
        <ele>624</ele>
        <time>2021-11-04T15:55:12Z</time>
      </trkpt>
      <trkpt lat="46.04859" lon="3.67713">
        <ele>615</ele>
        <time>2021-11-04T15:57:23Z</time>
      </trkpt>
      <trkpt lat="46.04915" lon="3.67691">
        <ele>609</ele>
        <time>2021-11-04T15:58:41Z</time>
      </trkpt>
      <trkpt lat="46.0495" lon="3.67676">
        <ele>601</ele>
        <time>2021-11-04T15:59:29Z</time>
      </trkpt>
      <trkpt lat="46.04953" lon="3.67638">
        <ele>605</ele>
        <time>2021-11-04T16:00:05Z</time>
      </trkpt>
      <trkpt lat="46.05006" lon="3.67607">
        <ele>591</ele>
        <time>2021-11-04T16:01:21Z</time>
      </trkpt>
      <trkpt lat="46.05002" lon="3.67524">
        <ele>602</ele>
        <time>2021-11-04T16:02:38Z</time>
      </trkpt>
      <trkpt lat="46.05057" lon="3.6741">
        <ele>598</ele>
        <time>2021-11-04T16:04:47Z</time>
      </trkpt>
      <trkpt lat="46.05039" lon="3.67271">
        <ele>606</ele>
        <time>2021-11-04T16:06:58Z</time>
      </trkpt>
      <trkpt lat="46.05179" lon="3.67189">
        <ele>595</ele>
        <time>2021-11-04T16:10:19Z</time>
      </trkpt>
      <trkpt lat="46.05221" lon="3.67116">
        <ele>599</ele>
        <time>2021-11-04T16:11:47Z</time>
      </trkpt>
      <trkpt lat="46.05239" lon="3.66957">
        <ele>604</ele>
        <time>2021-11-04T16:14:16Z</time>
      </trkpt>
      <trkpt lat="46.05318" lon="3.66923">
        <ele>593</ele>
        <time>2021-11-04T16:16:06Z</time>
      </trkpt>
      <trkpt lat="46.05335" lon="3.66818">
        <ele>598</ele>
        <time>2021-11-04T16:17:46Z</time>
      </trkpt>
      <trkpt lat="46.05304" lon="3.66773">
        <ele>603</ele>
        <time>2021-11-04T16:18:45Z</time>
      </trkpt>
      <trkpt lat="46.05268" lon="3.66732">
        <ele>610</ele>
        <time>2021-11-04T16:19:46Z</time>
      </trkpt>
      <trkpt lat="46.05259" lon="3.66605">
        <ele>612</ele>
        <time>2021-11-04T16:21:44Z</time>
      </trkpt>
      <trkpt lat="46.05175" lon="3.66612">
        <ele>619</ele>
        <time>2021-11-04T16:23:37Z</time>
      </trkpt>
      <trkpt lat="46.05058" lon="3.66693">
        <ele>638</ele>
        <time>2021-11-04T16:26:30Z</time>
      </trkpt>
      <trkpt lat="46.05011" lon="3.66766">
        <ele>648</ele>
        <time>2021-11-04T16:28:02Z</time>
      </trkpt>
      <trkpt lat="46.05042" lon="3.66841">
        <ele>643</ele>
        <time>2021-11-04T16:29:23Z</time>
      </trkpt>
      <trkpt lat="46.05058" lon="3.66921">
        <ele>643</ele>
        <time>2021-11-04T16:30:40Z</time>
      </trkpt>
      <trkpt lat="46.04969" lon="3.66979">
        <ele>657</ele>
        <time>2021-11-04T16:32:51Z</time>
      </trkpt>
      <trkpt lat="46.04935" lon="3.66949">
        <ele>667</ele>
        <time>2021-11-04T16:33:44Z</time>
      </trkpt>
      <trkpt lat="46.04837" lon="3.67058">
        <ele>685</ele>
        <time>2021-11-04T16:36:29Z</time>
      </trkpt>
      <trkpt lat="46.04781" lon="3.67088">
        <ele>696</ele>
        <time>2021-11-04T16:37:49Z</time>
      </trkpt>
      <trkpt lat="46.04723" lon="3.67054">
        <ele>707</ele>
        <time>2021-11-04T16:39:12Z</time>
      </trkpt>
      <trkpt lat="46.04615" lon="3.67">
        <ele>711</ele>
        <time>2021-11-04T16:41:45Z</time>
      </trkpt>
      <trkpt lat="46.04552" lon="3.66966">
        <ele>708</ele>
        <time>2021-11-04T16:43:15Z</time>
      </trkpt>
      <trkpt lat="46.04488" lon="3.66919">
        <ele>706</ele>
        <time>2021-11-04T16:44:50Z</time>
      </trkpt>
      <trkpt lat="46.04423" lon="3.66893">
        <ele>706</ele>
        <time>2021-11-04T16:46:20Z</time>
      </trkpt>
      <trkpt lat="46.04363" lon="3.66859">
        <ele>706</ele>
        <time>2021-11-04T16:47:46Z</time>
      </trkpt>
      <trkpt lat="46.04248" lon="3.66871">
        <ele>703</ele>
        <time>2021-11-04T16:50:20Z</time>
      </trkpt>
      <trkpt lat="46.04224" lon="3.66702">
        <ele>711</ele>
        <time>2021-11-04T16:53:00Z</time>
      </trkpt>
      <trkpt lat="46.04196" lon="3.66629">
        <ele>709</ele>
        <time>2021-11-04T16:54:17Z</time>
      </trkpt>
      <trkpt lat="46.04218" lon="3.66528">
        <ele>709</ele>
        <time>2021-11-04T16:55:55Z</time>
      </trkpt>
      <trkpt lat="46.04256" lon="3.66423">
        <ele>702</ele>
        <time>2021-11-04T16:57:45Z</time>
      </trkpt>
      <trkpt lat="46.04339" lon="3.6632">
        <ele>698</ele>
        <time>2021-11-04T17:00:11Z</time>
      </trkpt>
      <trkpt lat="46.04412" lon="3.66238">
        <ele>692</ele>
        <time>2021-11-04T17:02:15Z</time>
      </trkpt>
      <trkpt lat="46.04506" lon="3.6611">
        <ele>685</ele>
        <time>2021-11-04T17:05:07Z</time>
      </trkpt>
      <trkpt lat="46.04583" lon="3.66071">
        <ele>687</ele>
        <time>2021-11-04T17:06:56Z</time>
      </trkpt>
      <trkpt lat="46.04638" lon="3.65983">
        <ele>689</ele>
        <time>2021-11-04T17:08:46Z</time>
      </trkpt>
      <trkpt lat="46.04644" lon="3.65893">
        <ele>693</ele>
        <time>2021-11-04T17:10:10Z</time>
      </trkpt>
      <trkpt lat="46.04683" lon="3.65775">
        <ele>684</ele>
        <time>2021-11-04T17:12:11Z</time>
      </trkpt>
      <trkpt lat="46.04723" lon="3.65653">
        <ele>665</ele>
        <time>2021-11-04T17:14:16Z</time>
      </trkpt>
      <trkpt lat="46.04805" lon="3.65593">
        <ele>648</ele>
        <time>2021-11-04T17:16:19Z</time>
      </trkpt>
      <trkpt lat="46.04851" lon="3.65449">
        <ele>636</ele>
        <time>2021-11-04T17:18:45Z</time>
      </trkpt>
      <trkpt lat="46.04875" lon="3.65337">
        <ele>627</ele>
        <time>2021-11-04T17:20:34Z</time>
      </trkpt>
      <trkpt lat="46.04959" lon="3.6523">
        <ele>613</ele>
        <time>2021-11-04T17:23:04Z</time>
      </trkpt>
      <trkpt lat="46.05024" lon="3.65157">
        <ele>605</ele>
        <time>2021-11-04T17:24:54Z</time>
      </trkpt>
      <trkpt lat="46.05093" lon="3.65163">
        <ele>601</ele>
        <time>2021-11-04T17:26:26Z</time>
      </trkpt>
      <trkpt lat="46.05109" lon="3.65121">
        <ele>599</ele>
        <time>2021-11-04T17:27:10Z</time>
      </trkpt>
      <trkpt lat="46.05079" lon="3.65114">
        <ele>600</ele>
        <time>2021-11-04T17:27:51Z</time>
      </trkpt>
      <trkpt lat="46.05108" lon="3.652">
        <ele>600</ele>
        <time>2021-11-04T17:29:19Z</time>
      </trkpt>
      <trkpt lat="46.05109" lon="3.65327">
        <ele>593</ele>
        <time>2021-11-04T17:31:17Z</time>
      </trkpt>
      <trkpt lat="46.05087" lon="3.65415">
        <ele>592</ele>
        <time>2021-11-04T17:32:43Z</time>
      </trkpt>
      <trkpt lat="46.05109" lon="3.65571">
        <ele>595</ele>
        <time>2021-11-04T17:35:11Z</time>
      </trkpt>
      <trkpt lat="46.05152" lon="3.65663">
        <ele>599</ele>
        <time>2021-11-04T17:36:54Z</time>
      </trkpt>
      <trkpt lat="46.05157" lon="3.65754">
        <ele>598</ele>
        <time>2021-11-04T17:38:18Z</time>
      </trkpt>
      <trkpt lat="46.05155" lon="3.65884">
        <ele>591</ele>
        <time>2021-11-04T17:40:19Z</time>
      </trkpt>
      <trkpt lat="46.05167" lon="3.65975">
        <ele>590</ele>
        <time>2021-11-04T17:41:44Z</time>
      </trkpt>
      <trkpt lat="46.05249" lon="3.66067">
        <ele>597</ele>
        <time>2021-11-04T17:44:03Z</time>
      </trkpt>
      <trkpt lat="46.05322" lon="3.66142">
        <ele>592</ele>
        <time>2021-11-04T17:46:03Z</time>
      </trkpt>
      <trkpt lat="46.05407" lon="3.66213">
        <ele>588</ele>
        <time>2021-11-04T17:48:14Z</time>
      </trkpt>
      <trkpt lat="46.0555" lon="3.66157">
        <ele>584</ele>
        <time>2021-11-04T17:51:32Z</time>
      </trkpt>
      <trkpt lat="46.05577" lon="3.66294">
        <ele>585</ele>
        <time>2021-11-04T17:53:43Z</time>
      </trkpt>
      <trkpt lat="46.05556" lon="3.66487">
        <ele>582</ele>
        <time>2021-11-04T17:56:44Z</time>
      </trkpt>
      <trkpt lat="46.0558" lon="3.66603">
        <ele>578</ele>
        <time>2021-11-04T17:58:36Z</time>
      </trkpt>
      <trkpt lat="46.05623" lon="3.6667">
        <ele>574</ele>
        <time>2021-11-04T18:00:01Z</time>
      </trkpt>
      <trkpt lat="46.05633" lon="3.66809">
        <ele>570</ele>
        <time>2021-11-04T18:02:10Z</time>
      </trkpt>
      <trkpt lat="46.05705" lon="3.66925">
        <ele>565</ele>
        <time>2021-11-04T18:04:35Z</time>
      </trkpt>
      <trkpt lat="46.05784" lon="3.67009">
        <ele>559</ele>
        <time>2021-11-04T18:06:46Z</time>
      </trkpt>
      <trkpt lat="46.05845" lon="3.67127">
        <ele>556</ele>
        <time>2021-11-04T18:09:02Z</time>
      </trkpt>
      <trkpt lat="46.05857" lon="3.67206">
        <ele>551</ele>
        <time>2021-11-04T18:10:17Z</time>
      </trkpt>
      <trkpt lat="46.05842" lon="3.67245">
        <ele>551</ele>
        <time>2021-11-04T18:10:58Z</time>
      </trkpt>
      <trkpt lat="46.05864" lon="3.67311">
        <ele>551</ele>
        <time>2021-11-04T18:12:06Z</time>
      </trkpt>
      <trkpt lat="46.05851" lon="3.67361">
        <ele>553</ele>
        <time>2021-11-04T18:12:55Z</time>
      </trkpt>
      <trkpt lat="46.05778" lon="3.67378">
        <ele>552</ele>
        <time>2021-11-04T18:14:34Z</time>
      </trkpt>
      <trkpt lat="46.05733" lon="3.67466">
        <ele>553</ele>
        <time>2021-11-04T18:16:15Z</time>
      </trkpt>
      <trkpt lat="46.05699" lon="3.6755">
        <ele>555</ele>
        <time>2021-11-04T18:17:45Z</time>
      </trkpt>
      <trkpt lat="46.05666" lon="3.6756">
        <ele>554</ele>
        <time>2021-11-04T18:18:30Z</time>
      </trkpt>
      <trkpt lat="46.05609" lon="3.67631">
        <ele>559</ele>
        <time>2021-11-04T18:20:11Z</time>
      </trkpt>
      <trkpt lat="46.05574" lon="3.67796">
        <ele>571</ele>
        <time>2021-11-04T18:22:51Z</time>
      </trkpt>
      <trkpt lat="46.05517" lon="3.67839">
        <ele>575</ele>
        <time>2021-11-04T18:24:16Z</time>
      </trkpt>
      <trkpt lat="46.05474" lon="3.67927">
        <ele>575</ele>
        <time>2021-11-04T18:25:56Z</time>
      </trkpt>
      <trkpt lat="46.05423" lon="3.68011">
        <ele>578</ele>
        <time>2021-11-04T18:27:39Z</time>
      </trkpt>
      <trkpt lat="46.05377" lon="3.67966">
        <ele>578</ele>
        <time>2021-11-04T18:28:54Z</time>
      </trkpt>
      <trkpt lat="46.05285" lon="3.68176">
        <ele>580</ele>
        <time>2021-11-04T18:32:44Z</time>
      </trkpt>
      <trkpt lat="46.05155" lon="3.68144">
        <ele>584</ele>
        <time>2021-11-04T18:35:40Z</time>
      </trkpt>
      <trkpt lat="46.05109" lon="3.6823">
        <ele>585</ele>
        <time>2021-11-04T18:37:20Z</time>
      </trkpt>
      <trkpt lat="46.05087" lon="3.68287">
        <ele>587</ele>
        <time>2021-11-04T18:38:21Z</time>
      </trkpt>
      <trkpt lat="46.0513" lon="3.68384">
        <ele>589</ele>
        <time>2021-11-04T18:40:07Z</time>
      </trkpt>
      <trkpt lat="46.05222" lon="3.68416">
        <ele>587</ele>
        <time>2021-11-04T18:42:13Z</time>
      </trkpt>
      <trkpt lat="46.05314" lon="3.68568">
        <ele>593</ele>
        <time>2021-11-04T18:45:20Z</time>
      </trkpt>
      <trkpt lat="46.05366" lon="3.68676">
        <ele>595</ele>
        <time>2021-11-04T18:47:22Z</time>
      </trkpt>
      <trkpt lat="46.05393" lon="3.68707">
        <ele>593</ele>
        <time>2021-11-04T18:48:08Z</time>
      </trkpt>
      <trkpt lat="46.05473" lon="3.68781">
        <ele>589</ele>
        <time>2021-11-04T18:50:15Z</time>
      </trkpt>
      <trkpt lat="46.05488" lon="3.68815">
        <ele>589</ele>
        <time>2021-11-04T18:50:52Z</time>
      </trkpt>
      <trkpt lat="46.05492" lon="3.68829">
        <ele>589</ele>
        <time>2021-11-04T18:51:06Z</time>
      </trkpt>
      <trkpt lat="46.05495" lon="3.68855">
        <ele>590</ele>
        <time>2021-11-04T18:51:31Z</time>
      </trkpt>
    </trkseg>
  </trk>
</gpx>